sensor_id;sensor_type;location;lat;lon;timestamp;P1;durP1;ratioP1;P2;durP2;ratioP2
22652;SDS011;11493;43.344;26.226;2022-12-11T00:00:51;19.13;;;5.20;;
22652;SDS011;11493;43.344;26.226;2022-12-11T00:03:23;20.67;;;5.00;;
22652;SDS011;11493;43.344;26.226;2022-12-11T00:05:51;14.35;;;4.60;;
22652;SDS011;11493;43.344;26.226;2022-12-11T00:08:18;31.30;;;5.45;;
22652;SDS011;11493;43.344;26.226;2022-12-11T00:10:48;15.68;;;4.57;;
22652;SDS011;11493;43.344;26.226;2022-12-11T00:13:16;12.35;;;4.75;;
22652;SDS011;11493;43.344;26.226;2022-12-11T00:15:43;19.10;;;5.50;;
22652;SDS011;11493;43.344;26.226;2022-12-11T00:18:11;14.85;;;4.72;;
22652;SDS011;11493;43.344;26.226;2022-12-11T00:20:39;18.70;;;4.75;;
22652;SDS011;11493;43.344;26.226;2022-12-11T00:23:06;10.93;;;3.92;;
22652;SDS011;11493;43.344;26.226;2022-12-11T00:25:33;13.32;;;4.85;;
22652;SDS011;11493;43.344;26.226;2022-12-11T00:28:01;24.17;;;4.38;;
22652;SDS011;11493;43.344;26.226;2022-12-11T00:30:28;18.35;;;5.53;;
22652;SDS011;11493;43.344;26.226;2022-12-11T00:32:55;14.95;;;4.70;;
22652;SDS011;11493;43.344;26.226;2022-12-11T00:35:22;19.35;;;5.20;;
22652;SDS011;11493;43.344;26.226;2022-12-11T00:37:49;15.35;;;4.97;;
22652;SDS011;11493;43.344;26.226;2022-12-11T00:40:16;18.40;;;4.85;;
22652;SDS011;11493;43.344;26.226;2022-12-11T00:42:43;15.85;;;4.85;;
22652;SDS011;11493;43.344;26.226;2022-12-11T00:45:10;14.50;;;5.15;;
22652;SDS011;11493;43.344;26.226;2022-12-11T00:47:38;28.13;;;4.63;;
22652;SDS011;11493;43.344;26.226;2022-12-11T00:50:05;21.92;;;5.43;;
22652;SDS011;11493;43.344;26.226;2022-12-11T00:52:33;27.55;;;5.25;;
22652;SDS011;11493;43.344;26.226;2022-12-11T00:55:00;23.42;;;4.68;;
22652;SDS011;11493;43.344;26.226;2022-12-11T00:57:27;19.85;;;6.03;;
22652;SDS011;11493;43.344;26.226;2022-12-11T00:59:54;23.40;;;4.75;;
22652;SDS011;11493;43.344;26.226;2022-12-11T01:02:21;22.80;;;5.13;;
22652;SDS011;11493;43.344;26.226;2022-12-11T01:04:48;32.17;;;10.10;;
22652;SDS011;11493;43.344;26.226;2022-12-11T01:07:15;21.83;;;4.93;;
22652;SDS011;11493;43.344;26.226;2022-12-11T01:09:42;19.95;;;4.85;;
22652;SDS011;11493;43.344;26.226;2022-12-11T01:12:28;18.05;;;5.10;;
22652;SDS011;11493;43.344;26.226;2022-12-11T01:14:55;18.17;;;5.28;;
22652;SDS011;11493;43.344;26.226;2022-12-11T01:17:22;20.67;;;7.43;;
22652;SDS011;11493;43.344;26.226;2022-12-11T01:19:52;25.20;;;5.85;;
22652;SDS011;11493;43.344;26.226;2022-12-11T01:22:19;18.52;;;5.50;;
22652;SDS011;11493;43.344;26.226;2022-12-11T01:24:47;18.98;;;5.30;;
22652;SDS011;11493;43.344;26.226;2022-12-11T01:27:14;22.80;;;4.85;;
22652;SDS011;11493;43.344;26.226;2022-12-11T01:29:41;22.08;;;5.32;;
22652;SDS011;11493;43.344;26.226;2022-12-11T01:32:09;25.63;;;5.10;;
22652;SDS011;11493;43.344;26.226;2022-12-11T01:34:36;23.08;;;5.38;;
22652;SDS011;11493;43.344;26.226;2022-12-11T01:37:03;17.52;;;4.90;;
22652;SDS011;11493;43.344;26.226;2022-12-11T01:39:30;22.80;;;5.32;;
22652;SDS011;11493;43.344;26.226;2022-12-11T01:41:58;19.35;;;5.43;;
22652;SDS011;11493;43.344;26.226;2022-12-11T01:46:56;21.63;;;4.90;;
22652;SDS011;11493;43.344;26.226;2022-12-11T01:49:24;23.35;;;5.07;;
22652;SDS011;11493;43.344;26.226;2022-12-11T01:52:04;17.48;;;5.40;;
22652;SDS011;11493;43.344;26.226;2022-12-11T01:54:36;29.70;;;6.68;;
22652;SDS011;11493;43.344;26.226;2022-12-11T01:57:04;15.38;;;6.00;;
22652;SDS011;11493;43.344;26.226;2022-12-11T01:59:35;27.67;;;5.60;;
22652;SDS011;11493;43.344;26.226;2022-12-11T02:02:14;27.92;;;5.25;;
22652;SDS011;11493;43.344;26.226;2022-12-11T02:04:51;21.02;;;5.03;;
22652;SDS011;11493;43.344;26.226;2022-12-11T02:07:18;26.95;;;5.95;;
22652;SDS011;11493;43.344;26.226;2022-12-11T02:09:45;28.10;;;5.32;;
22652;SDS011;11493;43.344;26.226;2022-12-11T02:15:06;14.60;;;4.50;;
22652;SDS011;11493;43.344;26.226;2022-12-11T02:20:57;21.75;;;4.85;;
22652;SDS011;11493;43.344;26.226;2022-12-11T02:29:35;22.55;;;5.15;;
22652;SDS011;11493;43.344;26.226;2022-12-11T02:32:08;18.30;;;3.85;;
22652;SDS011;11493;43.344;26.226;2022-12-11T02:34:44;24.70;;;4.03;;
22652;SDS011;11493;43.344;26.226;2022-12-11T02:37:18;16.70;;;4.43;;
22652;SDS011;11493;43.344;26.226;2022-12-11T02:39:48;14.88;;;3.80;;
22652;SDS011;11493;43.344;26.226;2022-12-11T02:42:18;17.45;;;4.38;;
22652;SDS011;11493;43.344;26.226;2022-12-11T02:44:48;12.43;;;3.75;;
22652;SDS011;11493;43.344;26.226;2022-12-11T02:47:17;24.52;;;8.98;;
22652;SDS011;11493;43.344;26.226;2022-12-11T02:49:47;20.00;;;4.78;;
22652;SDS011;11493;43.344;26.226;2022-12-11T02:52:17;20.42;;;6.68;;
22652;SDS011;11493;43.344;26.226;2022-12-11T02:54:47;20.00;;;5.47;;
22652;SDS011;11493;43.344;26.226;2022-12-11T03:00:03;14.07;;;3.05;;
22652;SDS011;11493;43.344;26.226;2022-12-11T03:02:32;17.95;;;3.42;;
22652;SDS011;11493;43.344;26.226;2022-12-11T03:04:59;12.68;;;5.72;;
22652;SDS011;11493;43.344;26.226;2022-12-11T03:07:27;9.52;;;2.75;;
22652;SDS011;11493;43.344;26.226;2022-12-11T03:09:58;8.18;;;2.70;;
22652;SDS011;11493;43.344;26.226;2022-12-11T03:12:27;17.88;;;3.10;;
22652;SDS011;11493;43.344;26.226;2022-12-11T03:15:00;21.38;;;3.38;;
22652;SDS011;11493;43.344;26.226;2022-12-11T03:23:19;10.93;;;3.67;;
22652;SDS011;11493;43.344;26.226;2022-12-11T03:25:57;14.20;;;3.47;;
22652;SDS011;11493;43.344;26.226;2022-12-11T03:31:02;13.88;;;2.55;;
22652;SDS011;11493;43.344;26.226;2022-12-11T03:33:35;15.25;;;3.28;;
22652;SDS011;11493;43.344;26.226;2022-12-11T03:36:13;10.85;;;2.80;;
22652;SDS011;11493;43.344;26.226;2022-12-11T03:38:46;12.63;;;2.88;;
22652;SDS011;11493;43.344;26.226;2022-12-11T03:41:23;13.70;;;3.17;;
22652;SDS011;11493;43.344;26.226;2022-12-11T03:43:54;7.90;;;1.92;;
22652;SDS011;11493;43.344;26.226;2022-12-11T03:46:26;10.48;;;2.40;;
22652;SDS011;11493;43.344;26.226;2022-12-11T03:49:00;8.98;;;2.17;;
22652;SDS011;11493;43.344;26.226;2022-12-11T03:51:33;19.58;;;2.38;;
22652;SDS011;11493;43.344;26.226;2022-12-11T03:54:01;20.13;;;3.22;;
22652;SDS011;11493;43.344;26.226;2022-12-11T03:56:29;14.45;;;2.42;;
22652;SDS011;11493;43.344;26.226;2022-12-11T03:58:59;10.37;;;2.17;;
22652;SDS011;11493;43.344;26.226;2022-12-11T04:01:27;11.65;;;2.03;;
22652;SDS011;11493;43.344;26.226;2022-12-11T04:03:54;13.32;;;3.10;;
22652;SDS011;11493;43.344;26.226;2022-12-11T04:06:21;10.88;;;3.05;;
22652;SDS011;11493;43.344;26.226;2022-12-11T04:08:48;11.98;;;2.47;;
22652;SDS011;11493;43.344;26.226;2022-12-11T04:11:15;12.57;;;2.10;;
22652;SDS011;11493;43.344;26.226;2022-12-11T04:14:15;9.77;;;2.40;;
22652;SDS011;11493;43.344;26.226;2022-12-11T04:17:01;7.05;;;2.80;;
22652;SDS011;11493;43.344;26.226;2022-12-11T04:19:28;10.55;;;2.92;;
22652;SDS011;11493;43.344;26.226;2022-12-11T04:22:15;9.82;;;2.08;;
22652;SDS011;11493;43.344;26.226;2022-12-11T04:25:02;10.50;;;2.67;;
22652;SDS011;11493;43.344;26.226;2022-12-11T04:27:31;14.88;;;2.22;;
22652;SDS011;11493;43.344;26.226;2022-12-11T04:30:19;15.88;;;2.92;;
22652;SDS011;11493;43.344;26.226;2022-12-11T04:32:48;16.10;;;3.22;;
22652;SDS011;11493;43.344;26.226;2022-12-11T04:35:16;15.25;;;3.47;;
22652;SDS011;11493;43.344;26.226;2022-12-11T04:37:44;20.13;;;7.45;;
22652;SDS011;11493;43.344;26.226;2022-12-11T04:40:13;37.05;;;21.85;;
22652;SDS011;11493;43.344;26.226;2022-12-11T04:42:42;12.68;;;5.00;;
22652;SDS011;11493;43.344;26.226;2022-12-11T04:45:09;18.65;;;6.72;;
22652;SDS011;11493;43.344;26.226;2022-12-11T04:47:38;15.20;;;5.75;;
22652;SDS011;11493;43.344;26.226;2022-12-11T04:50:07;15.18;;;3.65;;
22652;SDS011;11493;43.344;26.226;2022-12-11T04:52:38;15.70;;;2.78;;
22652;SDS011;11493;43.344;26.226;2022-12-11T04:55:06;7.05;;;2.78;;
22652;SDS011;11493;43.344;26.226;2022-12-11T04:57:34;11.48;;;2.70;;
22652;SDS011;11493;43.344;26.226;2022-12-11T05:00:06;14.13;;;2.65;;
22652;SDS011;11493;43.344;26.226;2022-12-11T05:02:35;15.50;;;2.92;;
22652;SDS011;11493;43.344;26.226;2022-12-11T05:05:04;14.43;;;3.28;;
22652;SDS011;11493;43.344;26.226;2022-12-11T05:07:35;22.05;;;3.15;;
22652;SDS011;11493;43.344;26.226;2022-12-11T05:10:03;14.07;;;3.30;;
22652;SDS011;11493;43.344;26.226;2022-12-11T05:12:31;11.85;;;3.63;;
22652;SDS011;11493;43.344;26.226;2022-12-11T05:14:59;14.50;;;2.90;;
22652;SDS011;11493;43.344;26.226;2022-12-11T05:17:26;17.40;;;3.22;;
22652;SDS011;11493;43.344;26.226;2022-12-11T05:19:53;13.38;;;2.58;;
22652;SDS011;11493;43.344;26.226;2022-12-11T05:22:42;12.90;;;2.95;;
22652;SDS011;11493;43.344;26.226;2022-12-11T05:25:31;12.93;;;2.90;;
22652;SDS011;11493;43.344;26.226;2022-12-11T05:27:58;21.83;;;3.80;;
22652;SDS011;11493;43.344;26.226;2022-12-11T05:30:25;13.18;;;2.88;;
22652;SDS011;11493;43.344;26.226;2022-12-11T05:32:53;13.50;;;2.30;;
22652;SDS011;11493;43.344;26.226;2022-12-11T05:35:20;11.80;;;2.30;;
22652;SDS011;11493;43.344;26.226;2022-12-11T05:37:47;19.00;;;3.05;;
22652;SDS011;11493;43.344;26.226;2022-12-11T05:40:17;11.07;;;2.70;;
22652;SDS011;11493;43.344;26.226;2022-12-11T05:42:44;18.08;;;2.75;;
22652;SDS011;11493;43.344;26.226;2022-12-11T05:45:15;13.77;;;2.80;;
22652;SDS011;11493;43.344;26.226;2022-12-11T05:47:42;13.45;;;2.75;;
22652;SDS011;11493;43.344;26.226;2022-12-11T05:50:10;17.23;;;2.85;;
22652;SDS011;11493;43.344;26.226;2022-12-11T05:52:40;10.75;;;2.60;;
22652;SDS011;11493;43.344;26.226;2022-12-11T05:55:07;9.30;;;2.63;;
22652;SDS011;11493;43.344;26.226;2022-12-11T05:57:35;12.88;;;2.45;;
22652;SDS011;11493;43.344;26.226;2022-12-11T06:00:18;7.20;;;2.90;;
22652;SDS011;11493;43.344;26.226;2022-12-11T06:02:52;15.18;;;3.38;;
22652;SDS011;11493;43.344;26.226;2022-12-11T06:05:20;12.00;;;3.03;;
22652;SDS011;11493;43.344;26.226;2022-12-11T06:07:47;12.68;;;3.05;;
22652;SDS011;11493;43.344;26.226;2022-12-11T06:10:15;13.13;;;3.42;;
22652;SDS011;11493;43.344;26.226;2022-12-11T06:12:43;8.88;;;2.60;;
22652;SDS011;11493;43.344;26.226;2022-12-11T06:15:10;11.43;;;3.05;;
22652;SDS011;11493;43.344;26.226;2022-12-11T06:17:40;14.82;;;2.85;;
22652;SDS011;11493;43.344;26.226;2022-12-11T06:20:08;10.25;;;2.80;;
22652;SDS011;11493;43.344;26.226;2022-12-11T06:22:36;13.02;;;2.50;;
22652;SDS011;11493;43.344;26.226;2022-12-11T06:25:03;20.83;;;4.80;;
22652;SDS011;11493;43.344;26.226;2022-12-11T06:27:35;9.35;;;2.78;;
22652;SDS011;11493;43.344;26.226;2022-12-11T06:30:03;15.00;;;2.83;;
22652;SDS011;11493;43.344;26.226;2022-12-11T06:32:30;11.85;;;2.53;;
22652;SDS011;11493;43.344;26.226;2022-12-11T06:34:58;15.57;;;2.75;;
22652;SDS011;11493;43.344;26.226;2022-12-11T06:37:25;15.70;;;3.40;;
22652;SDS011;11493;43.344;26.226;2022-12-11T06:39:57;15.98;;;2.83;;
22652;SDS011;11493;43.344;26.226;2022-12-11T06:42:25;16.65;;;3.20;;
22652;SDS011;11493;43.344;26.226;2022-12-11T06:44:52;15.32;;;3.15;;
22652;SDS011;11493;43.344;26.226;2022-12-11T06:47:25;12.45;;;2.75;;
22652;SDS011;11493;43.344;26.226;2022-12-11T06:49:53;14.05;;;3.92;;
22652;SDS011;11493;43.344;26.226;2022-12-11T06:52:22;11.98;;;3.03;;
22652;SDS011;11493;43.344;26.226;2022-12-11T06:57:23;14.32;;;4.97;;
22652;SDS011;11493;43.344;26.226;2022-12-11T06:59:50;16.63;;;3.75;;
22652;SDS011;11493;43.344;26.226;2022-12-11T07:02:19;17.00;;;4.75;;
22652;SDS011;11493;43.344;26.226;2022-12-11T07:04:47;18.50;;;5.80;;
22652;SDS011;11493;43.344;26.226;2022-12-11T07:07:20;16.55;;;5.80;;
22652;SDS011;11493;43.344;26.226;2022-12-11T07:09:48;20.25;;;7.75;;
22652;SDS011;11493;43.344;26.226;2022-12-11T07:12:15;27.45;;;11.93;;
22652;SDS011;11493;43.344;26.226;2022-12-11T07:14:45;25.65;;;12.80;;
22652;SDS011;11493;43.344;26.226;2022-12-11T07:17:13;28.80;;;11.45;;
22652;SDS011;11493;43.344;26.226;2022-12-11T07:19:41;24.48;;;10.50;;
22652;SDS011;11493;43.344;26.226;2022-12-11T07:22:10;14.45;;;5.88;;
22652;SDS011;11493;43.344;26.226;2022-12-11T07:24:37;18.73;;;4.20;;
22652;SDS011;11493;43.344;26.226;2022-12-11T07:27:04;24.65;;;5.38;;
22652;SDS011;11493;43.344;26.226;2022-12-11T07:29:31;17.00;;;5.03;;
22652;SDS011;11493;43.344;26.226;2022-12-11T07:32:02;11.20;;;3.50;;
22652;SDS011;11493;43.344;26.226;2022-12-11T07:34:30;12.25;;;3.60;;
22652;SDS011;11493;43.344;26.226;2022-12-11T07:36:58;11.95;;;2.55;;
22652;SDS011;11493;43.344;26.226;2022-12-11T07:39:26;12.82;;;3.00;;
22652;SDS011;11493;43.344;26.226;2022-12-11T07:41:54;10.07;;;3.55;;
22652;SDS011;11493;43.344;26.226;2022-12-11T07:44:21;11.35;;;3.10;;
22652;SDS011;11493;43.344;26.226;2022-12-11T07:46:48;20.88;;;4.20;;
22652;SDS011;11493;43.344;26.226;2022-12-11T07:49:16;7.28;;;3.08;;
22652;SDS011;11493;43.344;26.226;2022-12-11T07:51:44;10.02;;;3.17;;
22652;SDS011;11493;43.344;26.226;2022-12-11T07:54:17;12.05;;;3.50;;
22652;SDS011;11493;43.344;26.226;2022-12-11T07:56:49;8.93;;;2.53;;
22652;SDS011;11493;43.344;26.226;2022-12-11T07:59:22;8.63;;;2.50;;
22652;SDS011;11493;43.344;26.226;2022-12-11T08:01:54;16.08;;;3.20;;
22652;SDS011;11493;43.344;26.226;2022-12-11T08:04:21;14.75;;;2.92;;
22652;SDS011;11493;43.344;26.226;2022-12-11T08:06:51;15.35;;;4.38;;
22652;SDS011;11493;43.344;26.226;2022-12-11T08:09:19;6.85;;;2.85;;
22652;SDS011;11493;43.344;26.226;2022-12-11T08:11:48;16.52;;;3.17;;
22652;SDS011;11493;43.344;26.226;2022-12-11T08:14:17;16.10;;;3.10;;
22652;SDS011;11493;43.344;26.226;2022-12-11T08:16:45;13.07;;;3.38;;
22652;SDS011;11493;43.344;26.226;2022-12-11T08:19:12;16.17;;;4.22;;
22652;SDS011;11493;43.344;26.226;2022-12-11T08:21:40;13.27;;;4.18;;
22652;SDS011;11493;43.344;26.226;2022-12-11T08:24:10;8.40;;;3.30;;
22652;SDS011;11493;43.344;26.226;2022-12-11T08:26:38;9.43;;;2.75;;
22652;SDS011;11493;43.344;26.226;2022-12-11T08:29:06;13.57;;;3.90;;
22652;SDS011;11493;43.344;26.226;2022-12-11T08:31:37;12.10;;;3.03;;
22652;SDS011;11493;43.344;26.226;2022-12-11T08:34:05;13.38;;;2.42;;
22652;SDS011;11493;43.344;26.226;2022-12-11T08:36:33;11.32;;;3.60;;
22652;SDS011;11493;43.344;26.226;2022-12-11T08:39:01;9.70;;;3.33;;
22652;SDS011;11493;43.344;26.226;2022-12-11T08:41:30;10.15;;;3.20;;
22652;SDS011;11493;43.344;26.226;2022-12-11T08:43:57;15.85;;;2.42;;
22652;SDS011;11493;43.344;26.226;2022-12-11T08:46:29;10.10;;;2.60;;
22652;SDS011;11493;43.344;26.226;2022-12-11T08:48:58;14.25;;;5.57;;
22652;SDS011;11493;43.344;26.226;2022-12-11T08:51:26;7.68;;;2.53;;
22652;SDS011;11493;43.344;26.226;2022-12-11T08:53:57;13.25;;;5.15;;
22652;SDS011;11493;43.344;26.226;2022-12-11T08:56:26;9.30;;;3.13;;
22652;SDS011;11493;43.344;26.226;2022-12-11T08:58:54;9.65;;;3.03;;
22652;SDS011;11493;43.344;26.226;2022-12-11T09:01:25;8.65;;;2.25;;
22652;SDS011;11493;43.344;26.226;2022-12-11T09:03:53;14.48;;;3.10;;
22652;SDS011;11493;43.344;26.226;2022-12-11T09:06:23;10.05;;;2.72;;
22652;SDS011;11493;43.344;26.226;2022-12-11T09:08:52;6.63;;;2.05;;
22652;SDS011;11493;43.344;26.226;2022-12-11T09:11:27;5.32;;;1.73;;
22652;SDS011;11493;43.344;26.226;2022-12-11T09:13:56;5.50;;;1.85;;
22652;SDS011;11493;43.344;26.226;2022-12-11T09:16:33;12.20;;;2.92;;
22652;SDS011;11493;43.344;26.226;2022-12-11T09:19:04;8.18;;;1.60;;
22652;SDS011;11493;43.344;26.226;2022-12-11T09:21:42;6.03;;;3.15;;
22652;SDS011;11493;43.344;26.226;2022-12-11T09:24:11;6.25;;;2.15;;
22652;SDS011;11493;43.344;26.226;2022-12-11T09:26:42;3.92;;;1.60;;
22652;SDS011;11493;43.344;26.226;2022-12-11T09:29:09;14.27;;;2.40;;
22652;SDS011;11493;43.344;26.226;2022-12-11T09:31:38;10.73;;;1.63;;
22652;SDS011;11493;43.344;26.226;2022-12-11T09:34:06;10.25;;;2.13;;
22652;SDS011;11493;43.344;26.226;2022-12-11T09:36:37;12.35;;;1.70;;
22652;SDS011;11493;43.344;26.226;2022-12-11T09:39:07;5.85;;;1.45;;
22652;SDS011;11493;43.344;26.226;2022-12-11T09:41:38;6.00;;;1.60;;
22652;SDS011;11493;43.344;26.226;2022-12-11T09:47:01;5.97;;;1.77;;
22652;SDS011;11493;43.344;26.226;2022-12-11T09:52:16;10.32;;;4.13;;
22652;SDS011;11493;43.344;26.226;2022-12-11T09:54:52;8.73;;;3.15;;
22652;SDS011;11493;43.344;26.226;2022-12-11T10:03:44;9.45;;;1.60;;
22652;SDS011;11493;43.344;26.226;2022-12-11T10:07:12;7.75;;;2.60;;
22652;SDS011;11493;43.344;26.226;2022-12-11T10:18:03;9.65;;;3.58;;
22652;SDS011;11493;43.344;26.226;2022-12-11T10:20:39;12.63;;;4.18;;
22652;SDS011;11493;43.344;26.226;2022-12-11T10:23:10;6.53;;;2.10;;
22652;SDS011;11493;43.344;26.226;2022-12-11T10:25:50;10.48;;;3.10;;
22652;SDS011;11493;43.344;26.226;2022-12-11T10:28:21;5.88;;;2.35;;
22652;SDS011;11493;43.344;26.226;2022-12-11T10:33:24;13.13;;;4.22;;
22652;SDS011;11493;43.344;26.226;2022-12-11T10:38:41;9.43;;;4.90;;
22652;SDS011;11493;43.344;26.226;2022-12-11T10:41:17;8.73;;;4.20;;
22652;SDS011;11493;43.344;26.226;2022-12-11T10:43:51;12.60;;;4.82;;
22652;SDS011;11493;43.344;26.226;2022-12-11T10:46:25;5.10;;;1.83;;
22652;SDS011;11493;43.344;26.226;2022-12-11T10:48:56;7.97;;;2.50;;
22652;SDS011;11493;43.344;26.226;2022-12-11T10:54:07;5.40;;;2.15;;
22652;SDS011;11493;43.344;26.226;2022-12-11T10:57:02;14.00;;;1.90;;
22652;SDS011;11493;43.344;26.226;2022-12-11T10:59:37;4.75;;;2.00;;
22652;SDS011;11493;43.344;26.226;2022-12-11T11:02:18;9.40;;;2.13;;
22652;SDS011;11493;43.344;26.226;2022-12-11T11:04:53;4.85;;;2.58;;
22652;SDS011;11493;43.344;26.226;2022-12-11T11:07:29;9.18;;;1.92;;
22652;SDS011;11493;43.344;26.226;2022-12-11T11:12:36;6.90;;;2.08;;
22652;SDS011;11493;43.344;26.226;2022-12-11T11:15:11;5.70;;;2.30;;
22652;SDS011;11493;43.344;26.226;2022-12-11T11:20:23;5.47;;;1.98;;
22652;SDS011;11493;43.344;26.226;2022-12-11T11:22:54;6.28;;;1.80;;
22652;SDS011;11493;43.344;26.226;2022-12-11T11:25:27;6.10;;;1.60;;
22652;SDS011;11493;43.344;26.226;2022-12-11T11:28:03;5.18;;;1.92;;
22652;SDS011;11493;43.344;26.226;2022-12-11T11:30:33;6.55;;;1.90;;
22652;SDS011;11493;43.344;26.226;2022-12-11T11:33:15;4.78;;;1.90;;
22652;SDS011;11493;43.344;26.226;2022-12-11T11:35:53;6.90;;;1.50;;
22652;SDS011;11493;43.344;26.226;2022-12-11T11:38:26;4.72;;;1.58;;
22652;SDS011;11493;43.344;26.226;2022-12-11T11:43:44;6.82;;;2.08;;
22652;SDS011;11493;43.344;26.226;2022-12-11T11:46:21;7.05;;;2.05;;
22652;SDS011;11493;43.344;26.226;2022-12-11T11:51:35;2.70;;;2.10;;
22652;SDS011;11493;43.344;26.226;2022-12-11T11:54:14;4.72;;;2.85;;
22652;SDS011;11493;43.344;26.226;2022-12-11T11:57:16;6.50;;;3.22;;
22652;SDS011;11493;43.344;26.226;2022-12-11T11:59:50;5.40;;;2.90;;
22652;SDS011;11493;43.344;26.226;2022-12-11T12:02:22;6.70;;;3.00;;
22652;SDS011;11493;43.344;26.226;2022-12-11T12:04:49;7.00;;;3.83;;
22652;SDS011;11493;43.344;26.226;2022-12-11T12:09:57;5.20;;;2.95;;
22652;SDS011;11493;43.344;26.226;2022-12-11T12:12:56;7.82;;;2.83;;
22652;SDS011;11493;43.344;26.226;2022-12-11T12:16:11;3.50;;;2.00;;
22652;SDS011;11493;43.344;26.226;2022-12-11T12:21:39;2.88;;;1.90;;
22652;SDS011;11493;43.344;26.226;2022-12-11T12:24:28;3.08;;;2.05;;
22652;SDS011;11493;43.344;26.226;2022-12-11T12:30:18;3.42;;;2.08;;
22652;SDS011;11493;43.344;26.226;2022-12-11T12:33:10;7.57;;;1.70;;
22652;SDS011;11493;43.344;26.226;2022-12-11T12:36:00;5.38;;;3.17;;
22652;SDS011;11493;43.344;26.226;2022-12-11T12:41:24;7.03;;;5.78;;
22652;SDS011;11493;43.344;26.226;2022-12-11T12:44:14;9.18;;;4.90;;
22652;SDS011;11493;43.344;26.226;2022-12-11T12:47:03;4.85;;;4.45;;
22652;SDS011;11493;43.344;26.226;2022-12-11T12:49:58;4.18;;;2.97;;
22652;SDS011;11493;43.344;26.226;2022-12-11T12:52:32;9.15;;;2.78;;
22652;SDS011;11493;43.344;26.226;2022-12-11T12:55:04;4.65;;;2.78;;
22652;SDS011;11493;43.344;26.226;2022-12-11T12:57:41;7.93;;;3.38;;
22652;SDS011;11493;43.344;26.226;2022-12-11T13:00:33;6.80;;;3.20;;
22652;SDS011;11493;43.344;26.226;2022-12-11T13:05:58;4.43;;;4.03;;
22652;SDS011;11493;43.344;26.226;2022-12-11T13:08:39;5.40;;;3.95;;
22652;SDS011;11493;43.344;26.226;2022-12-11T13:11:19;5.97;;;3.83;;
22652;SDS011;11493;43.344;26.226;2022-12-11T13:16:37;8.43;;;6.80;;
22652;SDS011;11493;43.344;26.226;2022-12-11T13:21:56;7.97;;;7.18;;
22652;SDS011;11493;43.344;26.226;2022-12-11T13:24:26;9.75;;;7.07;;
22652;SDS011;11493;43.344;26.226;2022-12-11T13:26:55;15.23;;;9.13;;
22652;SDS011;11493;43.344;26.226;2022-12-11T13:29:35;12.95;;;9.98;;
22652;SDS011;11493;43.344;26.226;2022-12-11T13:34:36;12.13;;;9.32;;
22652;SDS011;11493;43.344;26.226;2022-12-11T13:37:51;11.10;;;9.05;;
22652;SDS011;11493;43.344;26.226;2022-12-11T13:40:04;10.75;;;9.73;;
22652;SDS011;11493;43.344;26.226;2022-12-11T13:42:50;12.85;;;8.85;;
22652;SDS011;11493;43.344;26.226;2022-12-11T13:45:36;12.15;;;9.65;;
22652;SDS011;11493;43.344;26.226;2022-12-11T13:48:27;16.25;;;8.75;;
22652;SDS011;11493;43.344;26.226;2022-12-11T13:51:06;10.40;;;7.72;;
22652;SDS011;11493;43.344;26.226;2022-12-11T13:53:42;12.10;;;7.90;;
22652;SDS011;11493;43.344;26.226;2022-12-11T13:56:17;18.23;;;12.52;;
22652;SDS011;11493;43.344;26.226;2022-12-11T13:58:49;14.45;;;10.80;;
22652;SDS011;11493;43.344;26.226;2022-12-11T14:01:26;15.82;;;10.55;;
22652;SDS011;11493;43.344;26.226;2022-12-11T14:04:10;30.20;;;16.00;;
22652;SDS011;11493;43.344;26.226;2022-12-11T14:06:45;39.88;;;22.85;;
22652;SDS011;11493;43.344;26.226;2022-12-11T14:09:16;13.27;;;9.25;;
22652;SDS011;11493;43.344;26.226;2022-12-11T14:11:49;6.63;;;5.93;;
22652;SDS011;11493;43.344;26.226;2022-12-11T14:14:23;7.40;;;5.22;;
22652;SDS011;11493;43.344;26.226;2022-12-11T14:16:59;7.70;;;6.95;;
22652;SDS011;11493;43.344;26.226;2022-12-11T14:19:28;14.93;;;7.63;;
22652;SDS011;11493;43.344;26.226;2022-12-11T14:21:56;9.88;;;7.03;;
22652;SDS011;11493;43.344;26.226;2022-12-11T14:24:32;10.63;;;8.60;;
22652;SDS011;11493;43.344;26.226;2022-12-11T14:27:00;13.38;;;10.27;;
22652;SDS011;11493;43.344;26.226;2022-12-11T14:29:31;9.93;;;8.45;;
22652;SDS011;11493;43.344;26.226;2022-12-11T14:32:00;8.35;;;6.70;;
22652;SDS011;11493;43.344;26.226;2022-12-11T14:34:31;9.95;;;6.55;;
22652;SDS011;11493;43.344;26.226;2022-12-11T14:37:04;9.73;;;5.55;;
22652;SDS011;11493;43.344;26.226;2022-12-11T14:39:36;6.10;;;3.85;;
22652;SDS011;11493;43.344;26.226;2022-12-11T14:42:14;3.40;;;3.10;;
22652;SDS011;11493;43.344;26.226;2022-12-11T14:44:47;4.68;;;4.22;;
22652;SDS011;11493;43.344;26.226;2022-12-11T14:47:20;2.47;;;1.73;;
22652;SDS011;11493;43.344;26.226;2022-12-11T14:52:52;13.10;;;2.70;;
22652;SDS011;11493;43.344;26.226;2022-12-11T14:55:28;2.60;;;2.38;;
22652;SDS011;11493;43.344;26.226;2022-12-11T14:57:59;3.22;;;2.42;;
22652;SDS011;11493;43.344;26.226;2022-12-11T15:03:03;5.43;;;4.28;;
22652;SDS011;11493;43.344;26.226;2022-12-11T15:05:33;7.25;;;5.70;;
22652;SDS011;11493;43.344;26.226;2022-12-11T15:10:37;3.60;;;3.30;;
22652;SDS011;11493;43.344;26.226;2022-12-11T15:13:08;4.07;;;2.60;;
22652;SDS011;11493;43.344;26.226;2022-12-11T15:15:45;3.40;;;2.22;;
22652;SDS011;11493;43.344;26.226;2022-12-11T15:18:32;3.22;;;2.10;;
22652;SDS011;11493;43.344;26.226;2022-12-11T15:21:02;2.40;;;1.85;;
22652;SDS011;11493;43.344;26.226;2022-12-11T15:26:20;7.43;;;4.13;;
22652;SDS011;11493;43.344;26.226;2022-12-11T15:29:01;9.50;;;5.72;;
22652;SDS011;11493;43.344;26.226;2022-12-11T15:32:00;3.53;;;2.65;;
22652;SDS011;11493;43.344;26.226;2022-12-11T15:37:27;10.02;;;6.40;;
22652;SDS011;11493;43.344;26.226;2022-12-11T15:40:02;3.80;;;2.95;;
22652;SDS011;11493;43.344;26.226;2022-12-11T15:42:34;4.97;;;4.40;;
22652;SDS011;11493;43.344;26.226;2022-12-11T15:45:05;6.75;;;6.13;;
22652;SDS011;11493;43.344;26.226;2022-12-11T15:47:35;4.30;;;3.88;;
22652;SDS011;11493;43.344;26.226;2022-12-11T15:53:44;6.97;;;5.35;;
22652;SDS011;11493;43.344;26.226;2022-12-11T15:56:13;24.88;;;12.23;;
22652;SDS011;11493;43.344;26.226;2022-12-11T15:58:42;17.73;;;7.35;;
22652;SDS011;11493;43.344;26.226;2022-12-11T16:01:12;24.85;;;12.13;;
22652;SDS011;11493;43.344;26.226;2022-12-11T16:03:39;24.27;;;12.00;;
22652;SDS011;11493;43.344;26.226;2022-12-11T16:06:08;8.32;;;6.00;;
22652;SDS011;11493;43.344;26.226;2022-12-11T16:08:40;19.52;;;12.27;;
22652;SDS011;11493;43.344;26.226;2022-12-11T16:11:08;15.38;;;10.43;;
22652;SDS011;11493;43.344;26.226;2022-12-11T16:13:39;15.40;;;10.45;;
22652;SDS011;11493;43.344;26.226;2022-12-11T16:16:06;9.98;;;8.02;;
22652;SDS011;11493;43.344;26.226;2022-12-11T16:18:33;13.27;;;8.98;;
22652;SDS011;11493;43.344;26.226;2022-12-11T16:21:03;8.18;;;5.00;;
22652;SDS011;11493;43.344;26.226;2022-12-11T16:23:31;10.48;;;7.50;;
22652;SDS011;11493;43.344;26.226;2022-12-11T16:25:58;11.02;;;7.53;;
22652;SDS011;11493;43.344;26.226;2022-12-11T16:28:37;13.98;;;9.02;;
22652;SDS011;11493;43.344;26.226;2022-12-11T16:31:09;9.80;;;6.10;;
22652;SDS011;11493;43.344;26.226;2022-12-11T16:33:38;13.45;;;8.70;;
22652;SDS011;11493;43.344;26.226;2022-12-11T16:36:17;12.10;;;7.75;;
22652;SDS011;11493;43.344;26.226;2022-12-11T16:38:45;15.95;;;8.25;;
22652;SDS011;11493;43.344;26.226;2022-12-11T16:41:19;9.43;;;7.05;;